Time;durP1;ratioP1;P1;durP2;ratioP2;P2;SDS_P1;SDS_P2;PMS_P1;PMS_P2;Temp;Humidity;BMP_temperature;BMP_pressure;BME280_temperature;BME280_humidity;BME280_pressure;Samples;Min_cycle;Max_cycle;Signal;HPM_P1;HPM_P2
2023/10/30 00:02:08;;;;;;;2.72;1.05;;;;;;;11.51;100.00;97889.44;5004123;28;20053;-76
2023/10/30 00:04:34;;;;;;;1.25;1.05;;;;;;;11.45;100.00;97880.34;4986523;28;20029;-76
2023/10/30 00:06:59;;;;;;;2.72;1.10;;;;;;;11.44;100.00;97886.00;4987216;28;20318;-76
2023/10/30 00:09:24;;;;;;;2.60;1.30;;;;;;;11.44;100.00;97886.81;5004202;28;20022;-77
2023/10/30 00:11:50;;;;;;;2.45;1.10;;;;;;;11.49;100.00;97921.34;4986768;28;20038;-77
2023/10/30 00:14:15;;;;;;;2.85;0.90;;;;;;;11.45;100.00;97874.94;5003995;28;20281;-76
2023/10/30 00:16:40;;;;;;;3.90;1.27;;;;;;;11.40;100.00;97861.25;4986683;28;20018;-76
2023/10/30 00:19:06;;;;;;;2.40;0.95;;;;;;;11.47;100.00;97885.53;4986979;28;20030;-76
2023/10/30 00:21:31;;;;;;;3.67;1.20;;;;;;;11.49;100.00;97886.94;4987324;28;20049;-76
2023/10/30 00:23:56;;;;;;;2.38;1.00;;;;;;;11.50;100.00;97885.91;4985618;28;20032;-76
2023/10/30 00:26:22;;;;;;;2.88;1.48;;;;;;;11.49;100.00;97884.22;5003584;28;20033;-76
2023/10/30 00:28:47;;;;;;;3.45;2.20;;;;;;;11.41;100.00;97890.00;5003997;28;20022;-77
2023/10/30 00:31:12;;;;;;;3.30;1.98;;;;;;;11.40;100.00;97897.28;4981149;28;20327;-76
2023/10/30 00:33:38;;;;;;;4.15;2.25;;;;;;;11.40;100.00;97905.41;4986175;28;20231;-76
2023/10/30 00:36:03;;;;;;;6.07;2.50;;;;;;;11.36;100.00;97909.63;5004022;28;20022;-76
2023/10/30 00:38:29;;;;;;;5.10;2.33;;;;;;;11.38;100.00;97907.53;4986593;28;20378;-76
2023/10/30 00:40:54;;;;;;;4.45;2.28;;;;;;;11.41;100.00;97914.38;5003586;28;20025;-76
2023/10/30 00:43:19;;;;;;;5.65;1.88;;;;;;;11.33;100.00;97906.56;4986275;28;20030;-77
2023/10/30 00:45:45;;;;;;;2.83;1.80;;;;;;;11.32;100.00;97899.50;4979573;28;20109;-76
2023/10/30 00:48:10;;;;;;;3.28;1.85;;;;;;;11.21;100.00;97898.38;4979311;28;20328;-76
2023/10/30 00:50:35;;;;;;;2.90;1.90;;;;;;;11.40;100.00;97937.09;5001968;28;20045;-76
2023/10/30 00:53:01;;;;;;;2.45;1.40;;;;;;;11.24;100.00;97916.91;4987333;28;20029;-76
2023/10/30 00:55:26;;;;;;;1.65;0.90;;;;;;;11.40;100.00;97950.63;4987664;28;20133;-76
2023/10/30 00:57:51;;;;;;;2.13;1.10;;;;;;;11.36;100.00;97934.00;4985697;28;20193;-77
2023/10/30 01:00:17;;;;;;;5.57;1.42;;;;;;;11.43;100.00;97939.34;4989902;28;20038;-76
2023/10/30 01:02:44;;;;;;;3.55;1.20;;;;;;;11.48;100.00;97954.91;4986132;28;20093;-76
2023/10/30 01:05:10;;;;;;;1.98;1.10;;;;;;;11.50;100.00;97948.22;4986100;28;20026;-77
2023/10/30 01:07:35;;;;;;;2.17;1.20;;;;;;;11.52;100.00;97948.78;4988095;28;20113;-75
2023/10/30 01:10:00;;;;;;;2.47;1.38;;;;;;;11.51;100.00;97946.31;5003015;28;20034;-75
2023/10/30 01:12:26;;;;;;;4.10;1.75;;;;;;;11.47;100.00;97951.34;4984850;28;20276;-77
2023/10/30 01:14:52;;;;;;;2.55;1.83;;;;;;;11.53;100.00;97955.03;5002683;28;20089;-76
2023/10/30 01:17:18;;;;;;;5.57;1.90;;;;;;;11.36;100.00;97938.59;5002783;28;20030;-77
2023/10/30 01:19:43;;;;;;;3.67;1.95;;;;;;;11.43;100.00;97954.78;4984952;28;20057;-75
2023/10/30 01:22:08;;;;;;;3.47;2.10;;;;;;;11.44;100.00;97938.28;5003245;28;20037;-76
2023/10/30 01:24:34;;;;;;;3.33;2.15;;;;;;;11.46;100.00;97938.06;5002692;28;20030;-76
2023/10/30 01:26:59;;;;;;;5.07;1.90;;;;;;;11.45;100.00;97949.94;5001913;28;20056;-75
2023/10/30 01:29:25;;;;;;;4.20;1.88;;;;;;;11.53;100.00;97949.63;5002437;28;20112;-77
2023/10/30 01:31:50;;;;;;;2.33;1.60;;;;;;;11.53;100.00;97969.41;4985812;28;20018;-76
2023/10/30 01:34:15;;;;;;;4.22;2.17;;;;;;;11.52;100.00;97959.63;5002663;28;20032;-75
2023/10/30 01:36:41;;;;;;;4.90;2.03;;;;;;;11.57;100.00;97972.47;5002829;28;20030;-75
2023/10/30 01:39:06;;;;;;;4.22;1.67;;;;;;;11.51;100.00;97963.38;5002979;28;20022;-75
2023/10/30 01:41:31;;;;;;;2.13;1.60;;;;;;;11.51;100.00;97947.13;4985236;28;20056;-76
2023/10/30 01:43:56;;;;;;;3.80;1.83;;;;;;;11.42;100.00;97943.09;5005305;28;20068;-76
2023/10/30 01:46:22;;;;;;;2.03;1.38;;;;;;;11.56;100.00;97960.00;5011529;28;20162;-75
2023/10/30 01:48:47;;;;;;;4.63;1.05;;;;;;;11.55;100.00;97959.19;5002717;28;20036;-75
2023/10/30 01:51:16;;;;;;;2.78;0.70;;;;;;;11.60;100.00;97974.72;4991847;28;20041;-76
2023/10/30 01:53:42;;;;;;;0.75;0.50;;;;;;;11.38;100.00;97936.50;5002374;28;20073;-75
2023/10/30 01:56:08;;;;;;;1.52;0.70;;;;;;;11.54;100.00;97968.34;5002594;28;20018;-76
2023/10/30 01:58:34;;;;;;;3.03;0.52;;;;;;;11.55;100.00;97953.75;5002509;28;20311;-76
2023/10/30 02:00:59;;;;;;;1.40;0.50;;;;;;;11.55;100.00;97959.19;5001964;28;20037;-76
2023/10/30 02:03:25;;;;;;;1.52;0.38;;;;;;;11.52;100.00;97948.78;5001376;28;20032;-77
2023/10/30 02:05:51;;;;;;;1.42;0.40;;;;;;;11.54;100.00;97935.84;4995102;28;20052;-75
2023/10/30 02:08:16;;;;;;;2.55;0.40;;;;;;;11.47;100.00;97926.16;5002334;28;20030;-75
2023/10/30 02:10:42;;;;;;;4.32;0.50;;;;;;;11.41;100.00;97914.38;5001041;28;20029;-74
2023/10/30 02:13:08;;;;;;;0.60;0.30;;;;;;;11.57;100.00;97929.94;4997578;28;20377;-74
2023/10/30 02:15:34;;;;;;;1.30;0.40;;;;;;;11.50;100.00;97921.13;4984042;28;20385;-74
2023/10/30 02:17:59;;;;;;;1.80;0.43;;;;;;;11.49;100.00;97922.16;5002620;28;20022;-74
2023/10/30 02:20:25;;;;;;;3.95;0.30;;;;;;;11.55;100.00;97918.53;5001684;28;22240;-74
2023/10/30 02:22:50;;;;;;;1.00;0.50;;;;;;;11.61;100.00;97931.16;5001797;28;20053;-74
2023/10/30 02:25:22;;;;;;;1.38;0.32;;;;;;;11.52;100.00;97915.44;5002150;28;20022;-74
2023/10/30 02:27:48;;;;;;;1.00;0.30;;;;;;;11.61;100.00;97925.75;4987433;28;20363;-74
2023/10/30 02:30:14;;;;;;;0.70;0.25;;;;;;;11.55;100.00;97913.13;5001272;28;20034;-74
2023/10/30 02:32:44;;;;;;;0.88;0.25;;;;;;;11.45;100.00;97904.72;5002352;28;20026;-74
2023/10/30 02:35:14;;;;;;;3.38;0.45;;;;;;;11.61;100.00;97908.66;4983022;28;20022;-74
2023/10/30 02:37:40;;;;;;;1.15;0.60;;;;;;;11.54;100.00;97908.75;4984225;28;20033;-74
2023/10/30 02:40:06;;;;;;;0.80;0.40;;;;;;;11.38;100.00;97890.47;4984062;28;20045;-73
2023/10/30 02:42:31;;;;;;;4.45;0.60;;;;;;;11.45;100.00;97899.31;5001419;28;20096;-73
2023/10/30 02:44:57;;;;;;;2.88;1.10;;;;;;;11.49;100.00;97900.50;4984596;28;20253;-73
2023/10/30 02:47:24;;;;;;;1.65;0.98;;;;;;;11.49;100.00;97903.19;5001929;28;20053;-73
2023/10/30 02:49:49;;;;;;;3.00;1.15;;;;;;;11.43;100.00;97890.59;5001861;28;20092;-73
2023/10/30 02:52:14;;;;;;;2.00;1.40;;;;;;;11.37;100.00;97896.91;5000120;28;20315;-73
2023/10/30 02:54:40;;;;;;;2.63;1.40;;;;;;;11.29;100.00;97889.13;5001622;28;20026;-73
2023/10/30 02:57:05;;;;;;;2.33;1.50;;;;;;;11.43;100.00;97900.59;5002242;28;20032;-73
2023/10/30 02:59:30;;;;;;;2.65;1.42;;;;;;;11.47;100.00;97908.00;4983145;28;20026;-73
2023/10/30 03:01:56;;;;;;;2.72;1.42;;;;;;;11.41;100.00;97903.53;5001288;28;20026;-73
2023/10/30 03:04:22;;;;;;;19.00;2.00;;;;;;;11.39;100.00;97894.81;5000968;28;20102;-73
2023/10/30 03:06:47;;;;;;;4.18;1.40;;;;;;;11.37;100.00;97891.50;4991509;28;20029;-73
2023/10/30 03:09:13;;;;;;;11.98;1.55;;;;;;;11.41;100.00;97892.69;5001245;28;20026;-73
2023/10/30 03:11:38;;;;;;;2.70;0.93;;;;;;;11.41;100.00;97873.75;4984596;28;20034;-73
2023/10/30 03:14:04;;;;;;;3.33;0.85;;;;;;;11.50;100.00;97891.31;4979823;28;20066;-73
2023/10/30 03:16:29;;;;;;;3.65;0.70;;;;;;;11.45;100.00;97874.94;4998541;28;20053;-73
2023/10/30 03:18:54;;;;;;;6.75;1.30;;;;;;;11.37;100.00;97888.78;4982825;28;20323;-74
2023/10/30 03:21:20;;;;;;;1.77;1.05;;;;;;;11.39;100.00;97900.22;4988290;28;20030;-74
2023/10/30 03:23:45;;;;;;;1.65;0.95;;;;;;;11.37;100.00;97899.63;5003775;28;20218;-74
2023/10/30 03:26:10;;;;;;;1.70;0.90;;;;;;;11.35;100.00;97889.03;4997575;28;20137;-75
2023/10/30 03:28:35;;;;;;;5.88;1.10;;;;;;;11.31;100.00;97887.84;5003330;28;20018;-74
2023/10/30 03:31:09;;;;;;;2.00;1.13;;;;;;;11.35;100.00;97896.34;5005669;28;20197;-74
2023/10/30 03:33:34;;;;;;;3.05;1.05;;;;;;;11.34;100.00;97890.09;5004546;28;20439;-74
2023/10/30 03:36:02;;;;;;;5.45;1.60;;;;;;;11.29;100.00;97886.41;5003677;28;20030;-73
2023/10/30 03:38:27;;;;;;;3.45;1.45;;;;;;;11.31;100.00;97865.34;4986360;28;20108;-75
2023/10/30 03:40:52;;;;;;;7.60;1.80;;;;;;;11.16;100.00;97852.22;4987515;28;20022;-74
2023/10/30 03:43:18;;;;;;;5.30;1.35;;;;;;;11.11;100.00;97855.66;4987595;28;20052;-75
2023/10/30 03:45:44;;;;;;;2.60;1.30;;;;;;;11.09;100.00;97852.34;5004863;28;20026;-74
2023/10/30 03:48:09;;;;;;;5.53;1.42;;;;;;;10.97;100.00;97857.69;5004335;28;20022;-74
2023/10/30 03:50:34;;;;;;;3.65;1.48;;;;;;;11.02;100.00;97854.31;5004503;28;20073;-75
2023/10/30 03:53:00;;;;;;;3.60;1.10;;;;;;;10.87;100.00;97827.66;4988454;28;20057;-74
2023/10/30 03:55:25;;;;;;;3.80;1.00;;;;;;;10.87;100.00;97826.81;4981395;28;20025;-74
2023/10/30 03:57:50;;;;;;;3.38;1.05;;;;;;;10.87;100.00;97848.47;5001923;28;20327;-74
2023/10/30 04:00:16;;;;;;;6.22;1.25;;;;;;;10.80;100.00;97848.56;5002612;28;20054;-74
2023/10/30 04:02:41;;;;;;;4.47;1.10;;;;;;;10.69;100.00;97852.88;4986179;28;20037;-74
2023/10/30 04:05:07;;;;;;;1.85;0.70;;;;;;;10.75;100.00;97857.38;4989535;28;20026;-74
2023/10/30 04:07:32;;;;;;;6.38;0.70;;;;;;;10.65;100.00;97840.03;4986604;28;20405;-74
2023/10/30 04:09:58;;;;;;;1.38;0.77;;;;;;;10.59;100.00;97841.75;4985470;28;20196;-75
2023/10/30 04:12:23;;;;;;;5.15;0.70;;;;;;;10.53;100.00;97835.38;5004608;28;20069;-74
2023/10/30 04:14:49;;;;;;;5.78;0.90;;;;;;;10.50;100.00;97837.69;4986928;28;20026;-74
2023/10/30 04:17:15;;;;;;;5.18;0.70;;;;;;;10.42;100.00;97848.81;5001297;28;20037;-74
2023/10/30 04:19:40;;;;;;;2.70;0.40;;;;;;;10.41;100.00;97839.06;4987235;28;20029;-74
2023/10/30 04:22:05;;;;;;;3.33;0.38;;;;;;;10.43;100.00;97826.97;4991503;28;20022;-78
2023/10/30 04:24:32;;;;;;;0.90;0.40;;;;;;;10.47;100.00;97822.75;4988586;28;20044;-79
2023/10/30 04:26:57;;;;;;;3.33;0.50;;;;;;;10.45;100.00;97816.78;4993910;28;20405;-82
2023/10/30 04:29:22;;;;;;;4.75;0.60;;;;;;;10.31;100.00;97812.56;4988892;28;20042;-81
2023/10/30 04:31:48;;;;;;;7.82;0.65;;;;;;;10.41;100.00;97834.47;4994469;28;20037;-81
2023/10/30 04:34:13;;;;;;;4.55;0.77;;;;;;;10.08;100.00;97805.09;4996009;28;20048;-80
2023/10/30 04:36:38;;;;;;;1.48;0.50;;;;;;;10.05;100.00;97821.75;4998519;28;20037;-80
2023/10/30 04:39:08;;;;;;;2.75;0.70;;;;;;;10.22;100.00;97839.03;5015950;28;20014;-81
2023/10/30 04:41:34;;;;;;;3.30;0.80;;;;;;;10.05;100.00;97819.88;4992536;28;20446;-82
2023/10/30 04:43:59;;;;;;;0.60;0.50;;;;;;;10.16;100.00;97826.41;4990489;28;20026;-84
2023/10/30 04:46:24;;;;;;;2.38;0.70;;;;;;;10.35;100.00;97824.59;4987907;28;20025;-81
2023/10/30 04:48:49;;;;;;;6.10;0.82;;;;;;;10.30;100.00;97809.03;4992312;28;20022;-82
2023/10/30 04:51:15;;;;;;;3.58;0.60;;;;;;;10.07;100.00;97779.94;5000639;28;20049;-79
2023/10/30 04:53:40;;;;;;;3.42;0.65;;;;;;;10.21;100.00;97821.16;4990678;28;20308;-79
2023/10/30 04:56:07;;;;;;;4.20;0.70;;;;;;;10.36;100.00;97825.41;4991631;28;20097;-78
2023/10/30 04:58:33;;;;;;;3.70;0.55;;;;;;;10.26;100.00;97807.78;4986871;28;20022;-76
2023/10/30 05:00:58;;;;;;;1.60;0.70;;;;;;;10.32;100.00;97808.78;4992979;28;20022;-75
2023/10/30 05:03:24;;;;;;;2.72;0.63;;;;;;;10.44;100.00;97825.09;4986164;28;20045;-76
2023/10/30 05:05:49;;;;;;;3.72;0.60;;;;;;;10.36;100.00;97811.88;4986729;28;20034;-76
2023/10/30 05:08:15;;;;;;;1.90;0.60;;;;;;;10.50;100.00;97826.88;4986260;28;20026;-76
2023/10/30 05:10:40;;;;;;;1.80;0.70;;;;;;;10.51;100.00;97832.06;4986170;28;20081;-76
2023/10/30 05:13:06;;;;;;;1.50;0.60;;;;;;;10.56;100.00;97825.16;4985772;28;20022;-76
2023/10/30 05:15:31;;;;;;;4.05;0.80;;;;;;;10.63;100.00;97840.25;4986327;28;20090;-76
2023/10/30 05:17:56;;;;;;;2.83;0.60;;;;;;;10.69;100.00;97844.75;4985079;28;20054;-75
2023/10/30 05:20:22;;;;;;;4.30;0.70;;;;;;;10.68;100.00;97843.09;4982408;28;20308;-77
2023/10/30 05:22:47;;;;;;;3.38;0.73;;;;;;;10.66;100.00;97847.94;4985864;28;20041;-77
2023/10/30 05:25:12;;;;;;;1.48;0.85;;;;;;;10.48;100.00;97820.91;4993792;28;20070;-77
2023/10/30 05:27:38;;;;;;;4.53;0.93;;;;;;;10.73;100.00;97837.00;4983557;28;20030;-75
2023/10/30 05:30:03;;;;;;;1.35;0.80;;;;;;;10.72;100.00;97828.06;5001782;28;20025;-75
2023/10/30 05:32:28;;;;;;;5.22;0.70;;;;;;;10.57;100.00;97792.47;4981902;28;20029;-74
2023/10/30 05:34:54;;;;;;;4.82;0.70;;;;;;;10.65;100.00;97808.38;4996728;28;20026;-78
2023/10/30 05:37:19;;;;;;;1.23;0.70;;;;;;;10.62;100.00;97794.50;5004118;28;20223;-77
2023/10/30 05:39:45;;;;;;;2.10;1.10;;;;;;;10.53;100.00;97775.03;4986262;28;20252;-77
2023/10/30 05:42:10;;;;;;;5.22;0.80;;;;;;;10.42;100.00;97763.13;4986570;28;20030;-77
2023/10/30 05:44:36;;;;;;;4.20;0.65;;;;;;;10.39;100.00;97774.41;4986606;28;20227;-76
2023/10/30 05:47:01;;;;;;;2.60;0.70;;;;;;;10.37;100.00;97795.41;4986619;28;20097;-80
2023/10/30 05:49:27;;;;;;;1.33;0.70;;;;;;;10.26;100.00;97796.16;4998704;28;20291;-77
2023/10/30 05:51:53;;;;;;;1.70;0.60;;;;;;;10.18;100.00;97794.56;5005021;28;20065;-78
2023/10/30 05:54:18;;;;;;;1.48;0.65;;;;;;;10.26;100.00;97783.47;4983504;28;20080;-78
2023/10/30 05:56:44;;;;;;;3.13;1.00;;;;;;;10.30;100.00;97784.69;5000233;28;20239;-76
2023/10/30 05:59:09;;;;;;;2.92;0.88;;;;;;;10.17;100.00;97768.63;4997239;28;20043;-76
2023/10/30 06:01:34;;;;;;;1.10;0.50;;;;;;;10.25;100.00;97779.13;4982879;28;20308;-76
2023/10/30 06:03:59;;;;;;;3.38;0.50;;;;;;;10.26;100.00;97775.34;5001713;28;20022;-75
2023/10/30 06:06:25;;;;;;;2.90;0.70;;;;;;;10.14;100.00;97760.97;4980476;28;20037;-77
2023/10/30 06:08:50;;;;;;;2.05;0.70;;;;;;;10.07;100.00;97760.22;5001952;28;20049;-75
2023/10/30 06:11:15;;;;;;;0.88;0.57;;;;;;;10.02;100.00;97755.47;4982897;28;20080;-77
2023/10/30 06:13:41;;;;;;;1.42;0.70;;;;;;;9.91;100.00;97750.00;4984860;28;20448;-76
2023/10/30 06:16:06;;;;;;;5.93;1.00;;;;;;;9.96;100.00;97750.16;4985534;28;20354;-77
2023/10/30 06:18:31;;;;;;;4.82;0.93;;;;;;;9.97;100.00;97751.78;5003405;28;20022;-75
2023/10/30 06:20:57;;;;;;;2.05;0.60;;;;;;;9.82;100.00;97733.25;5003079;28;20049;-78
2023/10/30 06:23:22;;;;;;;0.93;0.70;;;;;;;9.88;100.00;97746.69;5002856;28;20096;-77
2023/10/30 06:25:48;;;;;;;3.85;0.90;;;;;;;9.91;100.00;97775.13;4987421;28;20027;-76
2023/10/30 06:28:15;;;;;;;1.30;0.50;;;;;;;9.99;100.00;97776.72;4985163;28;20064;-76
2023/10/30 06:30:41;;;;;;;2.67;0.73;;;;;;;9.93;100.00;97778.44;5003263;28;20023;-75
2023/10/30 06:33:06;;;;;;;1.25;0.77;;;;;;;9.94;100.00;97779.28;5001337;28;20114;-76
2023/10/30 06:35:31;;;;;;;5.60;0.75;;;;;;;9.86;100.00;97766.88;4986507;28;20025;-77
2023/10/30 06:37:57;;;;;;;2.15;0.70;;;;;;;10.15;100.00;97807.72;4986028;28;20079;-76
2023/10/30 06:40:22;;;;;;;3.95;0.70;;;;;;;10.23;100.00;97797.44;5003397;28;20415;-76
2023/10/30 06:42:47;;;;;;;5.68;0.93;;;;;;;10.32;100.00;97779.06;5000432;28;20037;-76
2023/10/30 06:45:12;;;;;;;3.10;0.70;;;;;;;10.79;100.00;97794.69;5002350;28;20034;-76
2023/10/30 06:47:38;;;;;;;1.13;0.55;;;;;;;12.23;100.00;97803.34;4984558;28;20037;-76
2023/10/30 06:50:03;;;;;;;2.30;0.50;;;;;;;14.28;100.00;97736.19;4985154;28;20018;-75
2023/10/30 06:52:29;;;;;;;1.85;0.30;;;;;;;16.25;100.00;97703.78;4983653;28;20027;-75
2023/10/30 06:54:54;;;;;;;0.30;0.10;;;;;;;17.94;100.00;97687.50;5003678;28;20061;-76
2023/10/30 06:57:19;;;;;;;2.33;0.40;;;;;;;18.77;100.00;97680.56;5006195;28;20049;-75
2023/10/30 06:59:45;;;;;;;1.33;0.40;;;;;;;19.80;100.00;97688.75;5005927;28;20350;-76
2023/10/30 07:02:10;;;;;;;1.40;0.43;;;;;;;19.54;100.00;97688.16;5004688;28;20049;-76
2023/10/30 07:04:36;;;;;;;1.90;0.98;;;;;;;18.47;100.00;97690.56;4988161;28;20027;-76
2023/10/30 07:07:01;;;;;;;1.52;0.63;;;;;;;17.81;100.00;97701.75;4988595;28;20328;-76
2023/10/30 07:09:27;;;;;;;2.88;0.75;;;;;;;17.31;100.00;97694.13;5004478;28;20022;-75
2023/10/30 07:11:52;;;;;;;1.65;0.60;;;;;;;17.62;100.00;97666.75;5003371;28;20354;-76
2023/10/30 07:14:17;;;;;;;4.60;1.00;;;;;;;19.03;100.00;97690.25;4986699;28;20030;-76
2023/10/30 07:16:42;;;;;;;4.97;0.90;;;;;;;19.80;100.00;97686.84;4988333;28;20092;-76
2023/10/30 07:19:08;;;;;;;3.83;0.80;;;;;;;21.03;100.00;97674.25;5004802;28;20030;-76
2023/10/30 07:21:33;;;;;;;2.90;1.00;;;;;;;21.54;100.00;97692.72;5004440;28;20385;-76
2023/10/30 07:23:58;;;;;;;1.55;0.73;;;;;;;21.91;100.00;97710.22;5004332;28;20097;-76
2023/10/30 07:26:24;;;;;;;2.28;0.80;;;;;;;22.66;98.34;97705.41;4997087;28;20347;-76
2023/10/30 07:28:49;;;;;;;1.48;0.70;;;;;;;21.67;100.00;97691.13;4987770;28;20022;-76
2023/10/30 07:31:17;;;;;;;5.85;0.63;;;;;;;21.50;100.00;97688.91;4983882;28;20215;-76
2023/10/30 07:33:43;;;;;;;5.82;0.80;;;;;;;21.54;100.00;97689.97;4986970;28;20019;-76
2023/10/30 07:36:08;;;;;;;3.83;0.95;;;;;;;22.77;93.35;97687.53;5004206;28;20049;-75
2023/10/30 07:38:33;;;;;;;4.05;1.95;;;;;;;24.15;79.49;97697.91;5001481;28;20026;-76
2023/10/30 07:40:59;;;;;;;3.58;1.52;;;;;;;24.26;74.83;97688.22;5001724;28;20037;-76
2023/10/30 07:43:24;;;;;;;6.82;1.88;;;;;;;24.12;74.24;97700.50;5004539;28;20080;-75
2023/10/30 07:45:50;;;;;;;1.23;0.85;;;;;;;24.34;76.18;97694.91;4987234;28;20026;-79
2023/10/30 07:48:16;;;;;;;1.88;0.90;;;;;;;25.07;70.37;97683.31;4986813;28;20026;-73
2023/10/30 07:50:43;;;;;;;3.47;1.60;;;;;;;24.54;71.87;97671.38;4995233;28;20026;-74
2023/10/30 07:53:08;;;;;;;1.90;0.80;;;;;;;23.96;72.35;97678.00;5004164;28;20121;-74
2023/10/30 07:55:34;;;;;;;3.40;0.90;;;;;;;25.08;66.60;97674.69;4987059;28;20014;-73
2023/10/30 07:58:00;;;;;;;2.60;0.90;;;;;;;25.27;67.46;97679.91;5004886;28;20048;-74
2023/10/30 08:00:25;;;;;;;2.35;1.10;;;;;;;25.01;67.42;97668.81;5003829;28;20284;-74
2023/10/30 08:02:51;;;;;;;2.47;1.27;;;;;;;25.57;64.05;97657.84;5001224;28;20120;-74
2023/10/30 08:05:16;;;;;;;1.65;0.80;;;;;;;25.22;65.25;97655.16;4978008;28;20231;-76
2023/10/30 08:07:44;;;;;;;3.05;0.70;;;;;;;24.75;66.85;97654.97;4991201;28;20101;-79
2023/10/30 08:10:09;;;;;;;4.93;0.77;;;;;;;24.46;66.45;97655.59;4986066;28;20034;-79
2023/10/30 08:12:35;;;;;;;2.10;0.55;;;;;;;24.71;64.67;97663.13;5011148;28;20030;-77
2023/10/30 08:15:00;;;;;;;1.83;0.60;;;;;;;24.00;66.21;97663.25;4998058;28;20416;-79
2023/10/30 08:17:26;;;;;;;2.75;0.47;;;;;;;23.72;65.28;97664.56;4986267;28;20069;-78
2023/10/30 08:19:51;;;;;;;1.50;0.60;;;;;;;24.02;66.13;97660.16;4988220;28;20045;-78
2023/10/30 08:22:17;;;;;;;1.05;0.40;;;;;;;24.64;65.98;97660.00;4987137;28;20033;-78
2023/10/30 08:24:42;;;;;;;2.33;0.57;;;;;;;25.11;63.62;97656.63;4989845;28;20025;-77
2023/10/30 08:27:07;;;;;;;1.90;0.60;;;;;;;24.79;66.54;97644.09;4990413;28;20259;-78
2023/10/30 08:29:33;;;;;;;2.85;0.60;;;;;;;24.36;67.90;97636.50;5004044;28;20243;-79
2023/10/30 08:31:58;;;;;;;1.60;0.60;;;;;;;25.69;62.75;97643.34;5003482;28;20048;-77
2023/10/30 08:34:23;;;;;;;1.45;0.40;;;;;;;24.78;59.12;97647.97;4990624;28;20030;-77
2023/10/30 08:36:49;;;;;;;2.03;0.20;;;;;;;24.71;60.41;97646.53;5004015;28;20128;-71
2023/10/30 08:39:14;;;;;;;3.05;0.30;;;;;;;25.70;58.53;97643.03;5002595;28;20077;-69
2023/10/30 08:41:39;;;;;;;0.73;0.25;;;;;;;25.87;59.26;97633.84;4984928;28;20029;-73
2023/10/30 08:44:05;;;;;;;1.17;0.40;;;;;;;26.52;56.67;97631.72;5004373;28;20030;-74
2023/10/30 08:46:30;;;;;;;0.38;0.20;;;;;;;25.44;59.03;97640.31;5003736;28;20253;-70
2023/10/30 08:48:57;;;;;;;0.63;0.30;;;;;;;25.91;59.41;97645.91;5003442;28;20200;-71
2023/10/30 08:51:23;;;;;;;2.67;0.40;;;;;;;25.77;59.31;97648.03;5003817;28;20033;-74
2023/10/30 08:53:50;;;;;;;2.45;0.30;;;;;;;26.21;58.61;97632.06;5003162;28;20026;-71
2023/10/30 08:56:16;;;;;;;2.28;0.40;;;;;;;26.10;57.25;97641.91;4986177;28;20049;-71
2023/10/30 08:58:42;;;;;;;5.88;0.50;;;;;;;26.59;58.37;97631.19;4985880;28;20064;-75
2023/10/30 09:01:07;;;;;;;1.50;0.75;;;;;;;26.40;56.77;97646.28;5002954;28;20278;-77
2023/10/30 09:03:33;;;;;;;1.05;0.30;;;;;;;28.46;53.39;97631.06;5004609;28;20026;-77
2023/10/30 09:05:58;;;;;;;1.60;0.50;;;;;;;28.69;53.13;97628.59;4979344;28;20022;-77
2023/10/30 09:08:24;;;;;;;1.30;0.47;;;;;;;29.33;50.03;97621.28;4989984;28;20030;-77
2023/10/30 09:10:50;;;;;;;1.27;0.40;;;;;;;27.44;52.75;97618.88;4984867;28;20291;-73
2023/10/30 09:13:15;;;;;;;0.65;0.40;;;;;;;27.07;55.15;97625.09;4985184;28;20021;-72
2023/10/30 09:15:41;;;;;;;2.65;0.60;;;;;;;27.57;53.17;97620.53;5001817;28;20223;-72
2023/10/30 09:18:06;;;;;;;1.58;0.70;;;;;;;28.69;51.58;97617.44;5002442;28;20037;-73
2023/10/30 09:20:31;;;;;;;4.35;0.82;;;;;;;28.61;50.99;97610.84;5002192;28;20228;-74
2023/10/30 09:22:57;;;;;;;2.63;0.52;;;;;;;28.32;50.20;97616.66;5002797;28;20037;-72
2023/10/30 09:25:22;;;;;;;1.35;0.60;;;;;;;29.47;47.65;97615.28;5002409;28;20061;-73
2023/10/30 09:27:50;;;;;;;1.63;0.70;;;;;;;29.80;47.47;97600.25;5003062;28;20034;-73
2023/10/30 09:30:16;;;;;;;0.88;0.50;;;;;;;28.77;49.53;97619.28;4985649;28;20026;-72
2023/10/30 09:32:41;;;;;;;2.00;0.70;;;;;;;28.93;49.66;97613.78;5003180;28;20026;-72
2023/10/30 09:35:07;;;;;;;5.95;1.35;;;;;;;28.30;50.66;97613.44;5003100;28;20090;-73
2023/10/30 09:37:33;;;;;;;1.92;0.70;;;;;;;27.73;51.96;97610.38;5002529;28;20030;-72
2023/10/30 09:39:58;;;;;;;1.65;0.77;;;;;;;28.83;51.63;97603.13;5002397;28;20077;-72
2023/10/30 09:42:24;;;;;;;9.27;0.82;;;;;;;29.82;47.53;97590.38;4985068;28;20335;-73
2023/10/30 09:44:49;;;;;;;2.00;1.02;;;;;;;29.76;48.95;97594.56;5002510;28;20027;-73
2023/10/30 09:47:14;;;;;;;1.85;0.90;;;;;;;28.54;49.59;97607.84;4985203;28;20034;-73
2023/10/30 09:49:40;;;;;;;2.45;0.77;;;;;;;28.32;48.85;97598.00;4985153;28;20030;-73
2023/10/30 09:52:07;;;;;;;2.20;0.90;;;;;;;27.06;52.08;97597.66;4982614;28;20030;-73
2023/10/30 09:54:34;;;;;;;1.75;1.00;;;;;;;27.04;53.34;97595.25;5002082;28;20022;-72
2023/10/30 09:57:03;;;;;;;1.48;0.60;;;;;;;24.62;58.35;97601.44;5002406;28;20080;-72
2023/10/30 09:59:32;;;;;;;5.22;1.63;;;;;;;24.93;58.72;97595.72;4998560;28;20109;-76
2023/10/30 10:01:57;;;;;;;;;;;;;;;24.81;58.57;97601.13;4999457;28;20038;-71
2023/10/30 10:04:22;;;;;;;2.33;0.60;;;;;;;24.33;60.00;97599.25;5003745;28;19980;-78
2023/10/30 10:06:51;;;;;;;2.20;0.60;;;;;;;23.12;66.21;97599.56;4989757;28;20273;-77
2023/10/30 10:09:16;;;;;;;1.70;0.70;;;;;;;22.93;69.22;97595.03;4980163;28;20031;-78
2023/10/30 10:11:42;;;;;;;4.53;0.70;;;;;;;22.72;74.92;97586.44;4995638;28;20022;-78
2023/10/30 10:14:08;;;;;;;1.20;0.75;;;;;;;23.76;70.67;97591.81;4988537;28;20121;-77
2023/10/30 10:16:39;;;;;;;1.70;0.50;;;;;;;25.34;65.83;97582.53;4995258;28;20097;-76
2023/10/30 10:19:21;;;;;;;4.80;0.80;;;;;;;26.23;61.53;97568.78;4984085;28;20026;-66
2023/10/30 10:21:49;;;;;;;3.78;0.70;;;;;;;28.12;56.94;97558.03;4984498;28;20347;-81
2023/10/30 10:24:26;;;;;;;8.93;0.90;;;;;;;28.55;54.56;97559.38;4992144;28;20114;-83
2023/10/30 10:26:52;;;;;;;2.97;0.52;;;;;;;29.67;50.20;97552.13;4993385;28;20086;-82
2023/10/30 10:29:22;;;;;;;0.77;0.50;;;;;;;29.56;50.79;97551.84;4988464;28;20112;-78
2023/10/30 10:31:48;;;;;;;1.25;0.57;;;;;;;28.39;53.64;97555.69;4989254;28;20022;-78
2023/10/30 10:34:14;;;;;;;2.90;0.70;;;;;;;26.44;57.36;97550.19;4984855;28;20014;-70
2023/10/30 10:36:40;;;;;;;0.80;0.43;;;;;;;25.34;62.63;97554.84;5004446;28;20355;-73
2023/10/30 10:39:05;;;;;;;1.73;0.80;;;;;;;25.25;65.70;97557.59;5006167;28;20027;-72
2023/10/30 10:41:31;;;;;;;0.88;0.50;;;;;;;24.77;69.17;97530.19;4990811;28;20309;-71
2023/10/30 10:43:59;;;;;;;2.40;0.50;;;;;;;24.06;71.03;97534.03;5005117;28;20041;-69
2023/10/30 10:46:24;;;;;;;1.23;0.63;;;;;;;23.92;74.66;97531.44;5005401;28;20026;-72
2023/10/30 10:48:50;;;;;;;1.67;0.50;;;;;;;23.36;85.61;97516.41;5004816;28;20277;-71
2023/10/30 10:51:29;;;;;;;1.42;0.70;;;;;;;22.22;100.00;97519.56;5004537;28;20114;-71
2023/10/30 10:54:03;;;;;;;2.20;0.57;;;;;;;21.46;100.00;97500.78;4985434;28;20026;-72
2023/10/30 10:56:30;;;;;;;1.45;0.70;;;;;;;21.16;100.00;97491.97;4984979;28;20023;-70
2023/10/30 10:59:04;;;;;;;1.15;0.40;;;;;;;20.53;100.00;97506.25;4986669;28;20311;-73
2023/10/30 11:01:34;;;;;;;2.13;0.70;;;;;;;19.97;100.00;97496.16;4985573;28;20041;-77
2023/10/30 11:03:59;;;;;;;1.48;0.77;;;;;;;19.43;100.00;97482.53;4985864;28;20097;-76
2023/10/30 11:06:38;;;;;;;1.67;0.47;;;;;;;19.40;100.00;97476.84;5000362;28;20125;-74
2023/10/30 11:09:12;;;;;;;2.40;1.00;;;;;;;19.35;100.00;97466.72;5003014;28;20034;-74
2023/10/30 11:12:01;;;;;;;1.05;0.50;;;;;;;18.92;100.00;97474.09;5003778;28;20026;-73
2023/10/30 11:14:47;;;;;;;;;;;;;;;18.43;100.00;97473.13;5003773;28;20029;-73
2023/10/30 11:17:12;;;;;;;1.52;0.77;;;;;;;18.26;100.00;97479.03;5004256;28;19952;-77
2023/10/30 11:19:37;;;;;;;1.63;0.60;;;;;;;18.11;100.00;97477.22;4986390;28;20026;-76
2023/10/30 11:22:03;;;;;;;1.27;0.60;;;;;;;17.93;100.00;97447.81;4987370;28;20327;-73
2023/10/30 11:24:36;;;;;;;1.55;0.60;;;;;;;18.16;100.00;97454.47;4996703;28;20030;-72